sensor_id;sensor_type;location;lat;lon;timestamp;P1;durP1;ratioP1;P2;durP2;ratioP2
3217;SDS011;1621;49.702;8.618;2023-06-10T00:00:53;8.23;;;5.90;;
3217;SDS011;1621;49.702;8.618;2023-06-10T00:03:20;7.63;;;6.07;;
3217;SDS011;1621;49.702;8.618;2023-06-10T00:05:49;7.30;;;5.50;;
3217;SDS011;1621;49.702;8.618;2023-06-10T00:08:16;10.20;;;6.00;;
3217;SDS011;1621;49.702;8.618;2023-06-10T00:10:44;7.03;;;5.90;;
3217;SDS011;1621;49.702;8.618;2023-06-10T00:13:11;7.67;;;6.60;;
3217;SDS011;1621;49.702;8.618;2023-06-10T00:15:37;6.90;;;5.83;;
3217;SDS011;1621;49.702;8.618;2023-06-10T00:18:04;7.13;;;6.43;;
3217;SDS011;1621;49.702;8.618;2023-06-10T00:20:30;6.43;;;5.80;;
3217;SDS011;1621;49.702;8.618;2023-06-10T00:22:58;7.80;;;5.90;;
3217;SDS011;1621;49.702;8.618;2023-06-10T00:25:26;7.33;;;6.07;;
3217;SDS011;1621;49.702;8.618;2023-06-10T00:27:52;7.00;;;6.30;;
3217;SDS011;1621;49.702;8.618;2023-06-10T00:30:19;10.73;;;6.60;;
3217;SDS011;1621;49.702;8.618;2023-06-10T00:32:45;6.97;;;5.93;;
3217;SDS011;1621;49.702;8.618;2023-06-10T00:35:11;6.67;;;5.90;;
3217;SDS011;1621;49.702;8.618;2023-06-10T00:37:37;7.40;;;6.20;;
3217;SDS011;1621;49.702;8.618;2023-06-10T00:40:06;9.10;;;7.17;;
3217;SDS011;1621;49.702;8.618;2023-06-10T00:42:34;7.63;;;6.03;;
3217;SDS011;1621;49.702;8.618;2023-06-10T00:45:00;8.00;;;6.80;;
3217;SDS011;1621;49.702;8.618;2023-06-10T00:47:26;7.37;;;6.57;;
3217;SDS011;1621;49.702;8.618;2023-06-10T00:49:53;9.00;;;7.10;;
3217;SDS011;1621;49.702;8.618;2023-06-10T00:52:19;8.87;;;6.40;;
3217;SDS011;1621;49.702;8.618;2023-06-10T00:54:48;10.67;;;8.07;;
3217;SDS011;1621;49.702;8.618;2023-06-10T00:57:15;8.60;;;6.87;;
3217;SDS011;1621;49.702;8.618;2023-06-10T00:59:42;8.70;;;7.80;;
3217;SDS011;1621;49.702;8.618;2023-06-10T01:02:11;9.03;;;6.93;;
3217;SDS011;1621;49.702;8.618;2023-06-10T01:04:37;17.30;;;8.43;;
3217;SDS011;1621;49.702;8.618;2023-06-10T01:07:05;11.07;;;7.20;;
3217;SDS011;1621;49.702;8.618;2023-06-10T01:09:37;8.33;;;7.43;;
3217;SDS011;1621;49.702;8.618;2023-06-10T01:12:05;13.63;;;8.00;;
3217;SDS011;1621;49.702;8.618;2023-06-10T01:14:35;8.63;;;7.53;;
3217;SDS011;1621;49.702;8.618;2023-06-10T01:17:01;11.80;;;8.87;;
3217;SDS011;1621;49.702;8.618;2023-06-10T01:19:28;9.00;;;7.27;;
3217;SDS011;1621;49.702;8.618;2023-06-10T01:21:57;9.03;;;7.40;;
3217;SDS011;1621;49.702;8.618;2023-06-10T01:24:25;12.63;;;7.90;;
3217;SDS011;1621;49.702;8.618;2023-06-10T01:26:51;9.07;;;7.47;;
3217;SDS011;1621;49.702;8.618;2023-06-10T01:29:20;8.40;;;7.60;;
3217;SDS011;1621;49.702;8.618;2023-06-10T01:31:52;7.30;;;6.30;;
3217;SDS011;1621;49.702;8.618;2023-06-10T01:34:20;8.13;;;7.33;;
3217;SDS011;1621;49.702;8.618;2023-06-10T01:36:48;10.20;;;7.57;;
3217;SDS011;1621;49.702;8.618;2023-06-10T01:39:17;7.33;;;6.60;;
3217;SDS011;1621;49.702;8.618;2023-06-10T01:41:44;11.57;;;7.07;;
3217;SDS011;1621;49.702;8.618;2023-06-10T01:44:10;8.30;;;7.40;;
3217;SDS011;1621;49.702;8.618;2023-06-10T01:46:37;8.00;;;7.07;;
3217;SDS011;1621;49.702;8.618;2023-06-10T01:49:03;8.27;;;6.43;;
3217;SDS011;1621;49.702;8.618;2023-06-10T01:51:29;14.10;;;6.33;;
3217;SDS011;1621;49.702;8.618;2023-06-10T01:53:56;9.30;;;6.80;;
3217;SDS011;1621;49.702;8.618;2023-06-10T01:56:24;8.17;;;7.33;;
3217;SDS011;1621;49.702;8.618;2023-06-10T01:58:50;11.43;;;7.40;;
3217;SDS011;1621;49.702;8.618;2023-06-10T02:01:20;7.60;;;6.80;;
3217;SDS011;1621;49.702;8.618;2023-06-10T02:03:46;11.70;;;7.43;;
3217;SDS011;1621;49.702;8.618;2023-06-10T02:06:12;10.23;;;7.20;;
3217;SDS011;1621;49.702;8.618;2023-06-10T02:08:38;8.13;;;7.30;;
3217;SDS011;1621;49.702;8.618;2023-06-10T02:11:05;8.33;;;6.87;;
3217;SDS011;1621;49.702;8.618;2023-06-10T02:13:33;9.13;;;7.03;;
3217;SDS011;1621;49.702;8.618;2023-06-10T02:15:59;7.20;;;6.20;;
3217;SDS011;1621;49.702;8.618;2023-06-10T02:18:26;8.20;;;6.97;;
3217;SDS011;1621;49.702;8.618;2023-06-10T02:20:53;7.13;;;6.13;;
3217;SDS011;1621;49.702;8.618;2023-06-10T02:23:19;10.80;;;6.87;;
3217;SDS011;1621;49.702;8.618;2023-06-10T02:25:45;8.60;;;6.63;;
3217;SDS011;1621;49.702;8.618;2023-06-10T02:28:12;8.00;;;6.33;;
3217;SDS011;1621;49.702;8.618;2023-06-10T02:30:40;8.63;;;6.50;;
3217;SDS011;1621;49.702;8.618;2023-06-10T02:33:06;6.70;;;6.00;;
3217;SDS011;1621;49.702;8.618;2023-06-10T02:35:34;9.27;;;6.83;;
3217;SDS011;1621;49.702;8.618;2023-06-10T02:38:01;7.57;;;6.73;;
3217;SDS011;1621;49.702;8.618;2023-06-10T02:40:27;8.13;;;7.33;;
3217;SDS011;1621;49.702;8.618;2023-06-10T02:42:54;8.13;;;6.63;;
3217;SDS011;1621;49.702;8.618;2023-06-10T02:45:20;12.07;;;6.70;;
3217;SDS011;1621;49.702;8.618;2023-06-10T02:47:47;6.97;;;6.27;;
3217;SDS011;1621;49.702;8.618;2023-06-10T02:50:14;8.57;;;6.50;;
3217;SDS011;1621;49.702;8.618;2023-06-10T02:52:40;8.20;;;6.63;;
3217;SDS011;1621;49.702;8.618;2023-06-10T02:55:07;7.10;;;5.93;;
3217;SDS011;1621;49.702;8.618;2023-06-10T02:57:33;6.43;;;5.83;;
3217;SDS011;1621;49.702;8.618;2023-06-10T02:59:59;7.10;;;6.20;;
3217;SDS011;1621;49.702;8.618;2023-06-10T03:02:27;7.50;;;5.97;;
3217;SDS011;1621;49.702;8.618;2023-06-10T03:04:55;7.30;;;6.37;;
3217;SDS011;1621;49.702;8.618;2023-06-10T03:07:21;9.83;;;6.30;;
3217;SDS011;1621;49.702;8.618;2023-06-10T03:09:48;8.10;;;6.33;;
3217;SDS011;1621;49.702;8.618;2023-06-10T03:12:14;8.30;;;6.60;;
3217;SDS011;1621;49.702;8.618;2023-06-10T03:14:41;7.93;;;6.33;;
3217;SDS011;1621;49.702;8.618;2023-06-10T03:17:07;8.10;;;6.47;;
3217;SDS011;1621;49.702;8.618;2023-06-10T03:19:34;7.20;;;6.20;;
3217;SDS011;1621;49.702;8.618;2023-06-10T03:22:10;6.50;;;5.90;;
3217;SDS011;1621;49.702;8.618;2023-06-10T03:24:37;5.80;;;5.20;;
3217;SDS011;1621;49.702;8.618;2023-06-10T03:27:05;8.13;;;6.57;;
3217;SDS011;1621;49.702;8.618;2023-06-10T03:29:31;6.70;;;5.83;;
3217;SDS011;1621;49.702;8.618;2023-06-10T03:31:58;9.17;;;5.70;;
3217;SDS011;1621;49.702;8.618;2023-06-10T03:34:24;9.43;;;6.87;;
3217;SDS011;1621;49.702;8.618;2023-06-10T03:36:50;7.27;;;6.57;;
3217;SDS011;1621;49.702;8.618;2023-06-10T03:39:18;8.10;;;6.90;;
3217;SDS011;1621;49.702;8.618;2023-06-10T03:41:44;7.37;;;6.23;;
3217;SDS011;1621;49.702;8.618;2023-06-10T03:44:10;6.83;;;6.13;;
3217;SDS011;1621;49.702;8.618;2023-06-10T03:46:37;9.10;;;6.23;;
3217;SDS011;1621;49.702;8.618;2023-06-10T03:49:04;7.40;;;6.00;;
3217;SDS011;1621;49.702;8.618;2023-06-10T03:51:30;8.00;;;5.50;;
3217;SDS011;1621;49.702;8.618;2023-06-10T03:53:56;6.77;;;5.70;;
3217;SDS011;1621;49.702;8.618;2023-06-10T03:56:24;7.57;;;6.77;;
3217;SDS011;1621;49.702;8.618;2023-06-10T03:58:50;7.60;;;6.73;;
3217;SDS011;1621;49.702;8.618;2023-06-10T04:01:17;10.27;;;6.03;;
3217;SDS011;1621;49.702;8.618;2023-06-10T04:03:45;7.07;;;6.20;;
3217;SDS011;1621;49.702;8.618;2023-06-10T04:06:13;9.07;;;6.43;;
3217;SDS011;1621;49.702;8.618;2023-06-10T04:08:41;9.03;;;6.23;;
3217;SDS011;1621;49.702;8.618;2023-06-10T04:11:07;7.30;;;6.43;;
3217;SDS011;1621;49.702;8.618;2023-06-10T04:13:35;8.57;;;6.27;;
3217;SDS011;1621;49.702;8.618;2023-06-10T04:16:01;6.60;;;5.67;;
3217;SDS011;1621;49.702;8.618;2023-06-10T04:18:28;8.70;;;6.90;;
3217;SDS011;1621;49.702;8.618;2023-06-10T04:20:54;8.80;;;7.23;;
3217;SDS011;1621;49.702;8.618;2023-06-10T04:23:20;8.73;;;6.80;;
3217;SDS011;1621;49.702;8.618;2023-06-10T04:25:47;8.33;;;7.30;;
3217;SDS011;1621;49.702;8.618;2023-06-10T04:28:13;9.60;;;7.00;;
3217;SDS011;1621;49.702;8.618;2023-06-10T04:30:41;8.10;;;7.00;;
3217;SDS011;1621;49.702;8.618;2023-06-10T04:33:07;6.97;;;6.27;;
3217;SDS011;1621;49.702;8.618;2023-06-10T04:35:34;7.97;;;6.97;;
3217;SDS011;1621;49.702;8.618;2023-06-10T04:38:00;10.43;;;7.17;;
3217;SDS011;1621;49.702;8.618;2023-06-10T04:40:27;8.00;;;7.20;;
3217;SDS011;1621;49.702;8.618;2023-06-10T04:42:54;9.27;;;7.60;;
3217;SDS011;1621;49.702;8.618;2023-06-10T04:45:20;8.90;;;7.20;;
3217;SDS011;1621;49.702;8.618;2023-06-10T04:47:47;8.43;;;7.53;;
3217;SDS011;1621;49.702;8.618;2023-06-10T04:50:14;9.00;;;8.10;;
3217;SDS011;1621;49.702;8.618;2023-06-10T04:52:40;9.57;;;8.00;;
3217;SDS011;1621;49.702;8.618;2023-06-10T04:55:07;9.20;;;6.73;;
3217;SDS011;1621;49.702;8.618;2023-06-10T04:57:34;8.73;;;7.57;;
3217;SDS011;1621;49.702;8.618;2023-06-10T05:00:01;8.00;;;7.20;;
3217;SDS011;1621;49.702;8.618;2023-06-10T05:02:30;7.73;;;6.93;;
3217;SDS011;1621;49.702;8.618;2023-06-10T05:04:58;9.67;;;7.37;;
3217;SDS011;1621;49.702;8.618;2023-06-10T05:07:24;10.83;;;7.20;;
3217;SDS011;1621;49.702;8.618;2023-06-10T05:09:50;8.60;;;7.77;;
3217;SDS011;1621;49.702;8.618;2023-06-10T05:12:17;8.17;;;7.37;;
3217;SDS011;1621;49.702;8.618;2023-06-10T05:14:43;14.70;;;8.03;;
3217;SDS011;1621;49.702;8.618;2023-06-10T05:17:09;8.00;;;7.13;;
3217;SDS011;1621;49.702;8.618;2023-06-10T05:19:37;9.27;;;7.30;;
3217;SDS011;1621;49.702;8.618;2023-06-10T05:22:05;8.27;;;7.43;;
3217;SDS011;1621;49.702;8.618;2023-06-10T05:24:31;10.40;;;7.70;;
3217;SDS011;1621;49.702;8.618;2023-06-10T05:26:58;8.90;;;7.07;;
3217;SDS011;1621;49.702;8.618;2023-06-10T05:29:24;8.27;;;7.43;;
3217;SDS011;1621;49.702;8.618;2023-06-10T05:31:50;7.27;;;6.20;;
3217;SDS011;1621;49.702;8.618;2023-06-10T05:34:17;9.03;;;6.60;;
3217;SDS011;1621;49.702;8.618;2023-06-10T05:36:43;7.80;;;7.00;;
3217;SDS011;1621;49.702;8.618;2023-06-10T05:39:10;7.10;;;6.40;;
3217;SDS011;1621;49.702;8.618;2023-06-10T05:41:37;10.10;;;7.40;;
3217;SDS011;1621;49.702;8.618;2023-06-10T05:44:03;8.20;;;7.10;;
3217;SDS011;1621;49.702;8.618;2023-06-10T05:46:29;10.60;;;7.37;;
3217;SDS011;1621;49.702;8.618;2023-06-10T05:48:56;8.03;;;6.93;;
3217;SDS011;1621;49.702;8.618;2023-06-10T05:51:22;10.33;;;7.23;;
3217;SDS011;1621;49.702;8.618;2023-06-10T05:53:48;10.43;;;7.90;;
3217;SDS011;1621;49.702;8.618;2023-06-10T05:56:16;9.47;;;7.20;;
3217;SDS011;1621;49.702;8.618;2023-06-10T05:58:42;9.40;;;7.67;;
3217;SDS011;1621;49.702;8.618;2023-06-10T06:01:08;10.03;;;8.20;;
3217;SDS011;1621;49.702;8.618;2023-06-10T06:03:35;10.20;;;8.10;;
3217;SDS011;1621;49.702;8.618;2023-06-10T06:06:02;10.67;;;8.10;;
3217;SDS011;1621;49.702;8.618;2023-06-10T06:08:28;8.77;;;7.70;;
3217;SDS011;1621;49.702;8.618;2023-06-10T06:10:55;9.30;;;8.30;;
3217;SDS011;1621;49.702;8.618;2023-06-10T06:13:22;8.90;;;8.00;;
3217;SDS011;1621;49.702;8.618;2023-06-10T06:15:48;9.53;;;7.70;;
3217;SDS011;1621;49.702;8.618;2023-06-10T06:18:15;13.23;;;8.40;;
3217;SDS011;1621;49.702;8.618;2023-06-10T06:20:41;12.70;;;10.10;;
3217;SDS011;1621;49.702;8.618;2023-06-10T06:23:07;10.43;;;8.47;;
3217;SDS011;1621;49.702;8.618;2023-06-10T06:25:35;15.20;;;9.20;;
3217;SDS011;1621;49.702;8.618;2023-06-10T06:28:03;11.27;;;8.57;;
3217;SDS011;1621;49.702;8.618;2023-06-10T06:30:31;11.40;;;7.77;;
3217;SDS011;1621;49.702;8.618;2023-06-10T06:32:57;9.20;;;7.90;;
3217;SDS011;1621;49.702;8.618;2023-06-10T06:35:24;9.33;;;8.10;;
3217;SDS011;1621;49.702;8.618;2023-06-10T06:37:50;9.10;;;8.20;;
3217;SDS011;1621;49.702;8.618;2023-06-10T06:40:16;10.10;;;9.00;;
3217;SDS011;1621;49.702;8.618;2023-06-10T06:42:42;9.57;;;8.40;;
3217;SDS011;1621;49.702;8.618;2023-06-10T06:45:09;9.90;;;8.10;;
3217;SDS011;1621;49.702;8.618;2023-06-10T06:47:37;10.90;;;8.47;;
3217;SDS011;1621;49.702;8.618;2023-06-10T06:50:03;10.47;;;8.70;;
3217;SDS011;1621;49.702;8.618;2023-06-10T06:52:30;10.13;;;8.10;;
3217;SDS011;1621;49.702;8.618;2023-06-10T06:54:56;11.67;;;8.60;;
3217;SDS011;1621;49.702;8.618;2023-06-10T06:57:22;8.93;;;7.97;;
3217;SDS011;1621;49.702;8.618;2023-06-10T06:59:49;11.10;;;8.20;;
3217;SDS011;1621;49.702;8.618;2023-06-10T07:02:15;9.60;;;7.30;;
3217;SDS011;1621;49.702;8.618;2023-06-10T07:04:43;8.53;;;7.63;;
3217;SDS011;1621;49.702;8.618;2023-06-10T07:07:09;9.23;;;8.00;;
3217;SDS011;1621;49.702;8.618;2023-06-10T07:09:35;9.73;;;7.80;;
3217;SDS011;1621;49.702;8.618;2023-06-10T07:12:02;8.23;;;7.13;;
3217;SDS011;1621;49.702;8.618;2023-06-10T07:14:28;8.10;;;7.10;;
3217;SDS011;1621;49.702;8.618;2023-06-10T07:16:55;9.30;;;8.30;;
3217;SDS011;1621;49.702;8.618;2023-06-10T07:19:21;9.47;;;7.53;;
3217;SDS011;1621;49.702;8.618;2023-06-10T07:21:48;10.10;;;8.20;;
3217;SDS011;1621;49.702;8.618;2023-06-10T07:24:15;8.00;;;6.53;;
3217;SDS011;1621;49.702;8.618;2023-06-10T07:26:41;7.83;;;7.00;;
3217;SDS011;1621;49.702;8.618;2023-06-10T07:29:07;7.27;;;6.50;;
3217;SDS011;1621;49.702;8.618;2023-06-10T07:31:33;8.90;;;7.23;;
3217;SDS011;1621;49.702;8.618;2023-06-10T07:34:00;7.47;;;6.67;;
3217;SDS011;1621;49.702;8.618;2023-06-10T07:36:26;8.77;;;6.50;;
3217;SDS011;1621;49.702;8.618;2023-06-10T07:38:55;8.30;;;6.67;;
3217;SDS011;1621;49.702;8.618;2023-06-10T07:41:22;11.00;;;6.50;;
3217;SDS011;1621;49.702;8.618;2023-06-10T07:43:49;12.43;;;8.13;;
3217;SDS011;1621;49.702;8.618;2023-06-10T07:46:19;8.40;;;7.07;;
3217;SDS011;1621;49.702;8.618;2023-06-10T07:48:45;8.20;;;7.33;;
3217;SDS011;1621;49.702;8.618;2023-06-10T07:51:11;8.67;;;6.53;;
3217;SDS011;1621;49.702;8.618;2023-06-10T07:53:38;7.40;;;6.63;;
3217;SDS011;1621;49.702;8.618;2023-06-10T07:56:05;10.53;;;8.43;;
3217;SDS011;1621;49.702;8.618;2023-06-10T07:58:32;7.73;;;6.90;;
3217;SDS011;1621;49.702;8.618;2023-06-10T08:00:58;9.90;;;7.00;;
3217;SDS011;1621;49.702;8.618;2023-06-10T08:03:24;9.67;;;7.30;;
3217;SDS011;1621;49.702;8.618;2023-06-10T08:05:50;8.23;;;7.30;;
3217;SDS011;1621;49.702;8.618;2023-06-10T08:08:17;8.20;;;6.97;;
3217;SDS011;1621;49.702;8.618;2023-06-10T08:10:43;8.57;;;7.57;;
3217;SDS011;1621;49.702;8.618;2023-06-10T08:13:11;10.60;;;6.80;;
3217;SDS011;1621;49.702;8.618;2023-06-10T08:15:37;7.93;;;6.70;;
3217;SDS011;1621;49.702;8.618;2023-06-10T08:18:03;7.77;;;6.83;;
3217;SDS011;1621;49.702;8.618;2023-06-10T08:20:30;7.00;;;6.30;;
3217;SDS011;1621;49.702;8.618;2023-06-10T08:22:57;8.17;;;7.10;;
3217;SDS011;1621;49.702;8.618;2023-06-10T08:25:23;12.33;;;7.30;;
3217;SDS011;1621;49.702;8.618;2023-06-10T08:27:49;7.97;;;6.00;;
3217;SDS011;1621;49.702;8.618;2023-06-10T08:30:18;8.30;;;7.50;;
3217;SDS011;1621;49.702;8.618;2023-06-10T08:32:44;9.20;;;7.30;;
3217;SDS011;1621;49.702;8.618;2023-06-10T08:35:10;8.07;;;7.10;;
3217;SDS011;1621;49.702;8.618;2023-06-10T08:37:37;10.90;;;7.03;;
3217;SDS011;1621;49.702;8.618;2023-06-10T08:40:03;9.33;;;7.20;;
3217;SDS011;1621;49.702;8.618;2023-06-10T08:42:32;12.00;;;8.03;;
3217;SDS011;1621;49.702;8.618;2023-06-10T08:45:00;8.30;;;7.40;;
3217;SDS011;1621;49.702;8.618;2023-06-10T08:47:28;9.33;;;6.53;;
3217;SDS011;1621;49.702;8.618;2023-06-10T08:49:56;7.30;;;6.60;;
3217;SDS011;1621;49.702;8.618;2023-06-10T08:52:27;7.60;;;6.10;;
3217;SDS011;1621;49.702;8.618;2023-06-10T08:54:56;8.13;;;6.50;;
3217;SDS011;1621;49.702;8.618;2023-06-10T08:57:22;8.97;;;6.60;;
3217;SDS011;1621;49.702;8.618;2023-06-10T08:59:49;8.37;;;6.60;;
3217;SDS011;1621;49.702;8.618;2023-06-10T09:02:15;8.10;;;6.83;;
3217;SDS011;1621;49.702;8.618;2023-06-10T09:04:46;8.37;;;6.83;;
3217;SDS011;1621;49.702;8.618;2023-06-10T09:07:13;12.80;;;7.27;;
3217;SDS011;1621;49.702;8.618;2023-06-10T09:09:39;11.90;;;7.13;;
3217;SDS011;1621;49.702;8.618;2023-06-10T09:12:08;10.33;;;7.67;;
3217;SDS011;1621;49.702;8.618;2023-06-10T09:14:34;9.77;;;8.00;;
3217;SDS011;1621;49.702;8.618;2023-06-10T09:17:01;10.03;;;7.40;;
3217;SDS011;1621;49.702;8.618;2023-06-10T09:19:27;8.30;;;7.23;;
3217;SDS011;1621;49.702;8.618;2023-06-10T09:21:55;10.27;;;7.33;;
3217;SDS011;1621;49.702;8.618;2023-06-10T09:24:22;9.57;;;7.57;;
3217;SDS011;1621;49.702;8.618;2023-06-10T09:26:48;8.20;;;7.40;;
3217;SDS011;1621;49.702;8.618;2023-06-10T09:29:15;9.10;;;7.13;;
3217;SDS011;1621;49.702;8.618;2023-06-10T09:31:42;8.43;;;7.50;;
3217;SDS011;1621;49.702;8.618;2023-06-10T09:34:10;8.07;;;7.27;;
3217;SDS011;1621;49.702;8.618;2023-06-10T09:36:37;8.37;;;7.57;;
3217;SDS011;1621;49.702;8.618;2023-06-10T09:39:04;8.10;;;7.10;;
3217;SDS011;1621;49.702;8.618;2023-06-10T09:41:32;10.03;;;7.67;;
3217;SDS011;1621;49.702;8.618;2023-06-10T09:43:58;10.33;;;7.40;;
3217;SDS011;1621;49.702;8.618;2023-06-10T09:46:25;8.03;;;7.23;;
3217;SDS011;1621;49.702;8.618;2023-06-10T09:48:57;8.17;;;7.37;;
3217;SDS011;1621;49.702;8.618;2023-06-10T09:51:23;7.73;;;6.70;;
3217;SDS011;1621;49.702;8.618;2023-06-10T09:53:50;8.50;;;6.90;;
3217;SDS011;1621;49.702;8.618;2023-06-10T09:56:18;7.37;;;5.53;;
3217;SDS011;1621;49.702;8.618;2023-06-10T09:58:44;10.50;;;6.17;;
3217;SDS011;1621;49.702;8.618;2023-06-10T10:01:11;7.40;;;6.13;;
3217;SDS011;1621;49.702;8.618;2023-06-10T10:03:44;7.10;;;5.40;;
3217;SDS011;1621;49.702;8.618;2023-06-10T10:06:12;6.73;;;5.70;;
3217;SDS011;1621;49.702;8.618;2023-06-10T10:08:39;6.80;;;5.40;;
3217;SDS011;1621;49.702;8.618;2023-06-10T10:11:05;6.57;;;5.33;;
3217;SDS011;1621;49.702;8.618;2023-06-10T10:13:33;6.17;;;5.30;;
3217;SDS011;1621;49.702;8.618;2023-06-10T10:16:00;6.00;;;4.90;;
3217;SDS011;1621;49.702;8.618;2023-06-10T10:18:28;5.50;;;4.90;;
3217;SDS011;1621;49.702;8.618;2023-06-10T10:20:55;6.67;;;5.33;;
3217;SDS011;1621;49.702;8.618;2023-06-10T10:23:24;6.93;;;5.10;;
3217;SDS011;1621;49.702;8.618;2023-06-10T10:25:51;5.77;;;5.17;;
3217;SDS011;1621;49.702;8.618;2023-06-10T10:28:17;6.33;;;5.73;;
3217;SDS011;1621;49.702;8.618;2023-06-10T10:30:48;11.43;;;5.23;;
3217;SDS011;1621;49.702;8.618;2023-06-10T10:33:17;10.70;;;5.47;;
3217;SDS011;1621;49.702;8.618;2023-06-10T10:35:45;6.70;;;5.60;;
3217;SDS011;1621;49.702;8.618;2023-06-10T10:38:11;7.97;;;5.93;;
3217;SDS011;1621;49.702;8.618;2023-06-10T10:40:38;5.60;;;5.10;;
3217;SDS011;1621;49.702;8.618;2023-06-10T10:43:05;6.27;;;5.67;;
3217;SDS011;1621;49.702;8.618;2023-06-10T10:45:32;6.10;;;5.50;;
3217;SDS011;1621;49.702;8.618;2023-06-10T10:48:04;7.93;;;5.73;;
3217;SDS011;1621;49.702;8.618;2023-06-10T10:50:30;7.90;;;5.50;;
3217;SDS011;1621;49.702;8.618;2023-06-10T10:52:58;6.97;;;5.30;;
3217;SDS011;1621;49.702;8.618;2023-06-10T10:55:25;8.27;;;5.07;;
3217;SDS011;1621;49.702;8.618;2023-06-10T10:57:55;9.43;;;5.67;;
3217;SDS011;1621;49.702;8.618;2023-06-10T11:00:28;7.47;;;5.33;;
3217;SDS011;1621;49.702;8.618;2023-06-10T11:02:57;6.40;;;5.13;;
3217;SDS011;1621;49.702;8.618;2023-06-10T11:05:32;8.53;;;5.30;;
3217;SDS011;1621;49.702;8.618;2023-06-10T11:08:01;6.20;;;5.27;;
3217;SDS011;1621;49.702;8.618;2023-06-10T11:10:31;6.53;;;5.20;;
3217;SDS011;1621;49.702;8.618;2023-06-10T11:12:57;5.60;;;4.70;;
3217;SDS011;1621;49.702;8.618;2023-06-10T11:15:24;6.73;;;5.10;;
3217;SDS011;1621;49.702;8.618;2023-06-10T11:20:44;8.27;;;5.10;;
3217;SDS011;1621;49.702;8.618;2023-06-10T11:23:13;7.50;;;5.00;;
3217;SDS011;1621;49.702;8.618;2023-06-10T11:25:50;12.07;;;5.40;;
3217;SDS011;1621;49.702;8.618;2023-06-10T11:28:19;5.00;;;4.50;;
3217;SDS011;1621;49.702;8.618;2023-06-10T11:30:46;7.17;;;4.90;;
3217;SDS011;1621;49.702;8.618;2023-06-10T11:33:14;4.57;;;4.00;;
3217;SDS011;1621;49.702;8.618;2023-06-10T11:35:40;5.73;;;4.27;;
3217;SDS011;1621;49.702;8.618;2023-06-10T11:38:08;5.47;;;4.43;;
3217;SDS011;1621;49.702;8.618;2023-06-10T11:40:36;5.60;;;4.33;;
3217;SDS011;1621;49.702;8.618;2023-06-10T11:43:03;5.10;;;4.60;;
3217;SDS011;1621;49.702;8.618;2023-06-10T11:45:30;4.23;;;3.77;;
3217;SDS011;1621;49.702;8.618;2023-06-10T11:47:56;4.40;;;3.67;;
3217;SDS011;1621;49.702;8.618;2023-06-10T11:50:30;4.83;;;3.97;;
3217;SDS011;1621;49.702;8.618;2023-06-10T11:52:56;4.73;;;4.10;;
3217;SDS011;1621;49.702;8.618;2023-06-10T11:55:26;4.90;;;3.97;;
3217;SDS011;1621;49.702;8.618;2023-06-10T11:58:03;5.03;;;3.73;;
3217;SDS011;1621;49.702;8.618;2023-06-10T12:00:29;4.00;;;3.60;;
3217;SDS011;1621;49.702;8.618;2023-06-10T12:02:56;6.00;;;4.17;;
3217;SDS011;1621;49.702;8.618;2023-06-10T12:05:23;5.33;;;4.43;;
3217;SDS011;1621;49.702;8.618;2023-06-10T12:07:49;4.27;;;3.20;;
3217;SDS011;1621;49.702;8.618;2023-06-10T12:10:16;5.13;;;3.80;;
3217;SDS011;1621;49.702;8.618;2023-06-10T12:12:43;5.17;;;3.60;;
3217;SDS011;1621;49.702;8.618;2023-06-10T12:15:10;5.20;;;3.60;;
3217;SDS011;1621;49.702;8.618;2023-06-10T12:17:37;4.10;;;3.23;;
3217;SDS011;1621;49.702;8.618;2023-06-10T12:20:04;6.20;;;4.20;;
3217;SDS011;1621;49.702;8.618;2023-06-10T12:22:35;5.90;;;3.80;;
3217;SDS011;1621;49.702;8.618;2023-06-10T12:25:02;4.27;;;3.87;;
3217;SDS011;1621;49.702;8.618;2023-06-10T12:27:29;4.30;;;3.83;;
3217;SDS011;1621;49.702;8.618;2023-06-10T12:29:57;7.93;;;4.17;;
3217;SDS011;1621;49.702;8.618;2023-06-10T12:32:34;4.90;;;4.03;;
3217;SDS011;1621;49.702;8.618;2023-06-10T12:35:02;3.97;;;3.50;;
3217;SDS011;1621;49.702;8.618;2023-06-10T12:37:28;6.27;;;4.50;;
3217;SDS011;1621;49.702;8.618;2023-06-10T12:39:54;5.10;;;3.50;;
3217;SDS011;1621;49.702;8.618;2023-06-10T12:42:21;5.60;;;4.07;;
3217;SDS011;1621;49.702;8.618;2023-06-10T12:44:52;4.53;;;3.70;;
3217;SDS011;1621;49.702;8.618;2023-06-10T12:47:21;5.67;;;3.97;;
3217;SDS011;1621;49.702;8.618;2023-06-10T12:49:56;5.03;;;3.60;;
3217;SDS011;1621;49.702;8.618;2023-06-10T12:52:22;8.77;;;4.23;;
3217;SDS011;1621;49.702;8.618;2023-06-10T12:54:48;8.10;;;4.17;;
3217;SDS011;1621;49.702;8.618;2023-06-10T12:57:15;5.70;;;3.67;;
3217;SDS011;1621;49.702;8.618;2023-06-10T12:59:41;5.90;;;4.40;;
3217;SDS011;1621;49.702;8.618;2023-06-10T13:02:15;11.03;;;4.47;;
3217;SDS011;1621;49.702;8.618;2023-06-10T13:04:42;6.70;;;4.10;;
3217;SDS011;1621;49.702;8.618;2023-06-10T13:07:09;4.43;;;3.50;;
3217;SDS011;1621;49.702;8.618;2023-06-10T13:09:36;4.23;;;3.83;;
3217;SDS011;1621;49.702;8.618;2023-06-10T13:12:02;5.50;;;4.40;;
3217;SDS011;1621;49.702;8.618;2023-06-10T13:14:28;5.20;;;3.90;;
3217;SDS011;1621;49.702;8.618;2023-06-10T13:16:55;12.43;;;3.90;;
3217;SDS011;1621;49.702;8.618;2023-06-10T13:19:21;7.13;;;4.13;;
3217;SDS011;1621;49.702;8.618;2023-06-10T13:21:49;4.30;;;3.90;;
3217;SDS011;1621;49.702;8.618;2023-06-10T13:24:15;4.50;;;3.77;;
3217;SDS011;1621;49.702;8.618;2023-06-10T13:26:41;4.50;;;3.50;;
3217;SDS011;1621;49.702;8.618;2023-06-10T13:29:07;5.57;;;3.80;;
3217;SDS011;1621;49.702;8.618;2023-06-10T13:31:38;5.50;;;3.57;;
3217;SDS011;1621;49.702;8.618;2023-06-10T13:34:05;3.87;;;3.20;;
3217;SDS011;1621;49.702;8.618;2023-06-10T13:36:31;6.20;;;3.67;;
3217;SDS011;1621;49.702;8.618;2023-06-10T13:38:59;4.43;;;4.00;;
3217;SDS011;1621;49.702;8.618;2023-06-10T13:41:25;5.30;;;3.80;;
3217;SDS011;1621;49.702;8.618;2023-06-10T13:43:52;4.27;;;3.83;;
3217;SDS011;1621;49.702;8.618;2023-06-10T13:46:18;5.17;;;3.93;;
3217;SDS011;1621;49.702;8.618;2023-06-10T13:48:46;6.70;;;3.90;;
3217;SDS011;1621;49.702;8.618;2023-06-10T13:51:12;4.20;;;3.80;;
3217;SDS011;1621;49.702;8.618;2023-06-10T13:53:39;3.70;;;3.10;;
3217;SDS011;1621;49.702;8.618;2023-06-10T13:56:06;5.73;;;4.10;;
3217;SDS011;1621;49.702;8.618;2023-06-10T13:58:33;11.57;;;4.33;;
3217;SDS011;1621;49.702;8.618;2023-06-10T14:01:03;6.40;;;3.50;;
3217;SDS011;1621;49.702;8.618;2023-06-10T14:03:30;7.53;;;4.00;;
3217;SDS011;1621;49.702;8.618;2023-06-10T14:05:56;4.60;;;3.77;;
3217;SDS011;1621;49.702;8.618;2023-06-10T14:08:22;4.30;;;3.63;;
3217;SDS011;1621;49.702;8.618;2023-06-10T14:10:48;4.00;;;3.60;;
3217;SDS011;1621;49.702;8.618;2023-06-10T14:13:17;4.37;;;3.40;;
3217;SDS011;1621;49.702;8.618;2023-06-10T14:15:43;4.63;;;3.87;;
3217;SDS011;1621;49.702;8.618;2023-06-10T14:18:09;4.40;;;4.00;;
3217;SDS011;1621;49.702;8.618;2023-06-10T14:20:35;5.03;;;3.80;;
3217;SDS011;1621;49.702;8.618;2023-06-10T14:23:02;4.40;;;4.00;;
3217;SDS011;1621;49.702;8.618;2023-06-10T14:25:28;5.57;;;4.80;;
3217;SDS011;1621;49.702;8.618;2023-06-10T14:27:54;5.20;;;3.90;;
3217;SDS011;1621;49.702;8.618;2023-06-10T14:30:22;5.60;;;4.40;;
3217;SDS011;1621;49.702;8.618;2023-06-10T14:32:48;7.87;;;4.07;;
3217;SDS011;1621;49.702;8.618;2023-06-10T14:35:14;4.73;;;4.23;;
3217;SDS011;1621;49.702;8.618;2023-06-10T14:37:41;4.60;;;3.87;;
3217;SDS011;1621;49.702;8.618;2023-06-10T14:40:07;5.40;;;4.20;;
3217;SDS011;1621;49.702;8.618;2023-06-10T14:42:34;5.27;;;4.20;;
3217;SDS011;1621;49.702;8.618;2023-06-10T14:45:00;4.67;;;4.20;;
3217;SDS011;1621;49.702;8.618;2023-06-10T14:47:28;5.10;;;3.67;;
3217;SDS011;1621;49.702;8.618;2023-06-10T14:49:54;5.00;;;4.50;;
3217;SDS011;1621;49.702;8.618;2023-06-10T14:52:20;5.03;;;4.27;;
3217;SDS011;1621;49.702;8.618;2023-06-10T14:54:47;4.27;;;3.80;;
3217;SDS011;1621;49.702;8.618;2023-06-10T14:57:13;4.70;;;4.20;;
3217;SDS011;1621;49.702;8.618;2023-06-10T14:59:39;4.70;;;3.40;;
3217;SDS011;1621;49.702;8.618;2023-06-10T15:02:06;6.10;;;4.00;;
3217;SDS011;1621;49.702;8.618;2023-06-10T15:04:33;5.00;;;4.00;;
3217;SDS011;1621;49.702;8.618;2023-06-10T15:07:00;3.50;;;3.20;;
3217;SDS011;1621;49.702;8.618;2023-06-10T15:09:26;5.50;;;3.67;;
3217;SDS011;1621;49.702;8.618;2023-06-10T15:11:52;4.97;;;4.47;;
3217;SDS011;1621;49.702;8.618;2023-06-10T15:14:19;5.10;;;3.70;;